Time;durP1;ratioP1;P1;durP2;ratioP2;P2;SDS_P1;SDS_P2;PMS_P1;PMS_P2;Temp;Humidity;BMP_temperature;BMP_pressure;BME280_temperature;BME280_humidity;BME280_pressure;Samples;Min_cycle;Max_cycle;Signal;HPM_P1;HPM_P2
2022/11/10 05:29:53;;;;;;;131.05;61.42;;;;;;;2.35;83.59;95042.13;1691057;83;21443;-88
2022/11/10 05:32:39;;;;;;;167.70;81.92;;;;;;;2.35;83.18;95044.84;1635446;84;37776;-86
2022/11/10 05:35:25;;;;;;;133.15;66.75;;;;;;;2.46;83.04;95041.55;1682259;84;21001;-86
2022/11/10 05:38:10;;;;;;;166.15;65.70;;;;;;;2.53;83.04;95043.50;1678487;85;21029;-88
2022/11/10 05:40:55;;;;;;;164.80;69.70;;;;;;;2.52;82.61;95044.66;1681547;84;21049;-82
2022/11/10 05:43:42;;;;;;;143.22;61.53;;;;;;;2.44;82.51;95044.45;1683356;84;21100;-78
2022/11/10 05:46:27;;;;;;;159.27;70.52;;;;;;;2.38;82.94;95050.08;1685926;83;21030;-84
2022/11/10 05:49:13;;;;;;;168.52;71.70;;;;;;;2.34;82.94;95056.09;1690881;84;20969;-84
2022/11/10 05:52:01;;;;;;;143.78;64.75;;;;;;;2.39;83.01;95060.56;1686124;84;20978;-81
2022/11/10 05:54:46;;;;;;;152.25;67.75;;;;;;;2.37;82.88;95064.25;1690047;84;21064;-81
2022/11/10 05:57:32;;;;;;;135.10;61.55;;;;;;;2.34;82.80;95064.24;1687619;84;21799;-81
2022/11/10 06:00:20;;;;;;;187.25;73.17;;;;;;;2.41;83.68;95069.66;1667295;84;21005;-82
2022/11/10 06:03:15;;;;;;;179.63;77.80;;;;;;;2.47;83.06;95067.53;1690253;83;21481;-81
2022/11/10 06:06:00;;;;;;;143.78;67.47;;;;;;;2.54;83.12;95067.53;1686439;84;21021;-82
2022/11/10 06:08:45;;;;;;;124.55;61.92;;;;;;;2.60;82.62;95073.36;1684683;84;21021;-81
2022/11/10 06:11:33;;;;;;;125.97;60.12;;;;;;;2.58;82.50;95066.17;1690948;84;22041;-82
2022/11/10 06:14:21;;;;;;;114.03;55.10;;;;;;;2.57;82.63;95068.13;1688363;84;21009;-81
2022/11/10 06:17:06;;;;;;;132.60;67.08;;;;;;;2.68;83.37;95068.89;1681969;84;20992;-81
2022/11/10 06:20:13;;;;;;;140.57;62.40;;;;;;;2.94;83.68;95085.36;1687778;84;21073;-81
2022/11/10 06:23:07;;;;;;;152.35;79.22;;;;;;;3.19;82.99;95085.52;1685546;84;20972;-81
2022/11/10 06:25:52;;;;;;;163.65;82.75;;;;;;;3.36;82.38;95087.99;1610898;88;21328;-83
2022/11/10 06:28:38;;;;;;;158.93;78.17;;;;;;;3.45;82.19;95093.81;1616451;86;21179;-83
2022/11/10 06:31:25;;;;;;;142.00;71.53;;;;;;;3.53;81.90;95090.68;1588789;88;21122;-81
2022/11/10 06:34:10;;;;;;;86.37;45.48;;;;;;;3.65;81.74;95097.05;1560591;89;21277;-84
2022/11/10 06:36:56;;;;;;;72.87;41.10;;;;;;;3.64;81.00;95083.23;1550905;89;21496;-83
2022/11/10 06:39:41;;;;;;;75.62;43.17;;;;;;;3.52;80.79;95096.69;1561146;91;21154;-86
2022/11/10 06:42:26;;;;;;;140.95;61.08;;;;;;;3.49;81.37;95098.08;1584479;89;21434;-84
2022/11/10 06:45:33;;;;;;;;;;;;;;;;;;;;;
2022/11/10 06:48:30;;;;;;;69.30;40.52;;;;;;;3.47;80.72;95113.23;1488277;94;21140;-88
2022/11/10 06:51:24;;;;;;;98.20;52.48;;;;;;;3.41;80.51;95121.61;1448538;97;21256;-86
2022/11/10 06:54:16;;;;;;;105.10;58.25;;;;;;;3.32;81.00;95118.50;1425980;99;21578;-80
2022/11/10 06:57:04;;;;;;;111.08;55.48;;;;;;;3.29;81.29;95111.92;1348139;105;21081;-89
2022/11/10 06:59:52;;;;;;;83.97;49.25;;;;;;;3.39;81.76;95110.34;1343621;104;21292;-89
2022/11/10 07:05:48;;;;;;;146.60;73.47;;;;;;;3.54;81.79;95109.91;1325655;103;21170;-88
2022/11/10 07:08:47;;;;;;;111.60;59.93;;;;;;;3.72;82.80;95106.55;1310699;109;21609;-90
2022/11/10 07:11:40;;;;;;;107.32;55.58;;;;;;;4.09;82.84;95100.72;1280835;108;21170;-88
2022/11/10 07:14:33;;;;;;;115.70;57.80;;;;;;;4.26;81.95;95085.47;1237128;114;21291;-86
2022/11/10 07:17:25;;;;;;;88.97;51.60;;;;;;;4.40;82.49;95074.50;1245637;113;21151;-88
2022/11/10 07:20:17;;;;;;;72.90;41.05;;;;;;;4.70;82.98;95074.07;1235569;113;21238;-88
2022/11/10 07:23:08;;;;;;;77.08;41.58;;;;;;;4.95;81.73;95075.99;1281652;108;21370;-88
2022/11/10 07:26:03;;;;;;;90.90;46.08;;;;;;;5.06;81.46;95072.59;1260600;110;21201;-90
2022/11/10 07:28:55;;;;;;;105.45;57.15;;;;;;;5.24;81.26;95074.56;1276781;107;21156;-88
2022/11/10 07:31:50;;;;;;;75.32;36.13;;;;;;;5.42;81.60;95080.61;1308389;107;21204;-86
2022/11/10 07:34:40;;;;;;;58.15;34.85;;;;;;;5.60;81.11;95077.09;1273697;110;21211;-87
2022/11/10 07:37:33;;;;;;;71.40;38.85;;;;;;;5.60;80.33;95087.41;1286581;109;21145;-87
2022/11/10 07:43:30;;;;;;;59.95;35.15;;;;;;;5.43;80.10;95082.91;1279167;111;21109;-89
2022/11/10 07:46:17;;;;;;;66.42;37.00;;;;;;;5.42;79.97;95080.00;1314345;107;21138;-87
2022/11/10 07:49:03;;;;;;;80.30;40.70;;;;;;;5.39;80.36;95077.33;1309773;107;21211;-86
2022/11/10 07:51:52;;;;;;;57.95;35.05;;;;;;;5.39;80.43;95077.33;1341113;105;21192;-86
2022/11/10 07:54:49;;;;;;;56.48;35.30;;;;;;;5.37;80.77;95078.30;1329157;106;21171;-90
2022/11/10 07:57:50;;;;;;;58.90;33.48;;;;;;;5.42;80.51;95078.64;1331542;106;21193;-91
2022/11/10 08:00:51;;;;;;;62.60;39.13;;;;;;;5.48;80.61;95078.98;1287413;109;21143;-86
2022/11/10 08:03:44;;;;;;;79.90;40.60;;;;;;;5.65;80.95;95099.27;1283399;109;21310;-87
2022/11/10 08:06:38;;;;;;;69.77;43.83;;;;;;;5.89;80.98;95093.34;1278494;111;21215;-89
2022/11/10 08:09:36;;;;;;;84.75;46.90;;;;;;;6.07;80.89;95080.24;1300767;108;21185;-82
2022/11/10 08:12:29;;;;;;;81.85;45.55;;;;;;;6.21;80.51;95084.16;1252134;113;21232;-87
2022/11/10 08:15:20;;;;;;;88.85;50.83;;;;;;;6.47;80.87;95087.49;1292636;109;21150;-87
2022/11/10 08:18:19;;;;;;;81.50;48.02;;;;;;;6.88;80.96;95074.39;1280149;111;21974;-87
2022/11/10 08:21:05;;;;;;;95.77;49.73;;;;;;;7.19;80.04;95089.66;1274185;107;21259;-89
2022/11/10 08:23:59;;;;;;;62.10;37.75;;;;;;;7.42;79.45;95091.61;1298442;109;21594;-90
2022/11/10 08:26:58;;;;;;;37.42;24.25;;;;;;;7.69;78.52;95096.41;1296459;109;21140;-87
2022/11/10 08:29:44;;;;;;;34.38;20.60;;;;;;;7.89;77.45;95085.63;1224523;115;21295;-89
2022/11/10 08:32:56;;;;;;;20.03;14.30;;;;;;;8.08;76.40;95105.40;1206656;113;21276;31
2022/11/10 08:35:50;;;;;;;32.30;21.82;;;;;;;8.27;75.55;95101.14;1240530;114;21197;-90
2022/11/10 08:38:40;;;;;;;32.80;19.87;;;;;;;8.47;74.87;95101.89;1242476;114;21143;-90
2022/11/10 08:41:31;;;;;;;42.98;22.82;;;;;;;8.68;74.20;95099.45;1221073;113;21219;-86
2022/11/10 08:44:24;;;;;;;38.65;23.67;;;;;;;8.91;73.75;95100.68;1246526;112;21143;-88
2022/11/10 08:47:22;;;;;;;42.33;23.22;;;;;;;9.20;72.99;95098.78;1272484;108;21219;-88
2022/11/10 08:50:15;;;;;;;34.08;20.02;;;;;;;9.51;72.41;95096.64;1283563;109;21274;-89
2022/11/10 08:53:16;;;;;;;;;;;;;;;9.88;71.37;95089.76;1319760;105;21091;-86
2022/11/10 09:05:25;;;;;;;35.35;18.95;;;;;;;11.53;66.52;95079.41;1375504;97;21151;-89
2022/11/10 09:17:49;;;;;;;27.70;13.65;;;;;;;12.73;62.54;95078.80;1381834;100;21187;-85
2022/11/10 09:20:51;;;;;;;35.50;20.62;;;;;;;12.96;61.68;95075.55;1336726;105;21128;-87
2022/11/10 09:23:55;;;;;;;34.48;15.78;;;;;;;13.08;61.11;95070.55;1347507;104;21137;-89
2022/11/10 09:26:46;;;;;;;35.13;15.03;;;;;;;13.15;60.79;95062.75;1331797;105;21105;-90
2022/11/10 09:29:45;;;;;;;38.88;18.40;;;;;;;13.42;60.26;95067.59;1328471;105;21127;-89
2022/11/10 09:36:01;;;;;;;29.65;15.50;;;;;;;13.58;59.17;95063.13;1263292;111;21309;-92
2022/11/10 09:38:57;;;;;;;34.40;15.80;;;;;;;13.57;59.66;95062.98;1270713;111;21310;-85
2022/11/10 09:45:41;;;;;;;31.45;13.25;;;;;;;13.79;58.84;95070.56;1273773;110;21311;-82
2022/11/10 09:49:12;;;;;;;;;;;;;;;;;;;;;
2022/11/10 09:52:01;;;;;;;33.90;24.55;;;;;;;13.71;59.00;95078.98;1223807;115;21230;-88
2022/11/10 09:55:20;;;;;;;;;;;;;;;;;;;;;
2022/11/10 09:59:27;;;;;;;30.25;17.98;;;;;;;13.89;58.80;95070.11;1234513;115;21250;-85
2022/11/10 10:02:41;;;;;;;31.25;17.25;;;;;;;14.01;58.82;95071.18;1282931;109;21186;-88
2022/11/10 10:06:01;;;;;;;20.80;13.40;;;;;;;14.29;58.93;95077.66;1308916;108;21129;-87
2022/11/10 10:09:15;;;;;;;;;;;;;;;14.45;57.83;95071.80;1314366;107;21182;-88
2022/11/10 10:12:49;;;;;;;26.65;12.90;;;;;;;14.24;57.93;95078.89;1300075;108;20162;-90
2022/11/10 10:16:10;;;;;;;37.93;14.78;;;;;;;13.94;58.67;95072.25;1293812;109;21165;-92
2022/11/10 10:19:15;;;;;;;28.32;13.50;;;;;;;13.77;59.32;95070.23;1261351;111;21193;-89
2022/11/10 10:25:58;;;;;;;30.47;18.83;;;;;;;13.50;60.22;95060.52;1260110;111;21391;-91
2022/11/10 10:28:50;;;;;;;37.83;18.60;;;;;;;13.34;60.85;95064.94;1259212;111;21415;-85
2022/11/10 10:32:00;;;;;;;39.23;20.15;;;;;;;13.23;61.33;95062.61;1261634;111;21154;-90
2022/11/10 10:34:45;;;;;;;39.20;17.02;;;;;;;13.26;61.85;95065.84;1335342;102;21207;-88
2022/11/10 10:37:44;;;;;;;30.17;16.37;;;;;;;13.33;61.79;95066.16;1372271;101;21801;-86
2022/11/10 10:40:34;;;;;;;41.42;15.95;;;;;;;13.33;61.67;95070.31;1365040;101;21857;-90
2022/11/10 10:43:27;;;;;;;37.85;16.65;;;;;;;13.25;61.86;95064.92;1384170;100;21107;-87
2022/11/10 10:49:29;;;;;;;26.12;15.83;;;;;;;13.18;62.44;95061.83;1335283;106;21110;-88
2022/11/10 10:52:16;;;;;;;43.73;19.20;;;;;;;13.19;62.60;95068.11;1339155;106;21172;-91
2022/11/10 10:55:18;;;;;;;41.70;17.95;;;;;;;13.16;62.83;95075.94;1343677;106;22871;-89
2022/11/10 11:05:35;;;;;;;61.37;19.07;;;;;;;13.01;63.77;95081.86;1338661;105;21138;-89
2022/11/10 11:08:25;;;;;;;59.10;21.00;;;;;;;12.93;64.29;95079.23;1286414;110;21165;-88
2022/11/10 11:11:29;;;;;;;;;;;;;;;;;;;;;
2022/11/10 11:20:42;;;;;;;;;;;;;;;;;;;;;
2022/11/10 11:24:44;;;;;;;39.73;25.60;;;;;;;13.05;66.10;95070.08;1367024;103;21083;-89
2022/11/10 11:28:11;;;;;;;48.17;23.80;;;;;;;13.21;65.87;95071.19;1352386;100;21296;-89
2022/11/10 11:31:11;;;;;;;44.98;24.67;;;;;;;13.33;65.71;95071.69;1389962;98;21559;-82
2022/11/10 11:34:39;;;;;;;63.68;28.02;;;;;;;13.42;65.93;95068.97;1359456;105;21219;-82
2022/11/10 11:37:37;;;;;;;65.22;28.85;;;;;;;13.50;65.62;95075.72;1351598;104;21642;-82
2022/11/10 11:40:31;;;;;;;43.75;23.47;;;;;;;13.50;65.57;95074.34;1339046;106;21314;-81
2022/11/10 11:43:47;;;;;;;36.58;22.45;;;;;;;13.51;65.61;95075.88;1416244;101;21135;-86
2022/11/10 11:46:46;;;;;;;52.85;28.77;;;;;;;13.56;65.48;95084.34;1408891;101;21201;-82
2022/11/10 11:49:59;;;;;;;41.60;23.95;;;;;;;13.59;65.51;95078.52;1382385;103;21140;-85
2022/11/10 11:53:17;;;;;;;41.05;25.23;;;;;;;13.57;65.70;95076.80;1374322;103;21082;-84
2022/11/10 11:56:27;;;;;;;47.48;26.20;;;;;;;13.51;66.30;95082.80;1398505;102;21562;-85
2022/11/10 11:59:26;;;;;;;51.75;29.82;;;;;;;13.48;66.33;95086.47;1389687;101;21211;-87
2022/11/10 12:02:40;;;;;;;56.28;26.77;;;;;;;13.49;66.48;95079.09;1401809;100;21373;-82
2022/11/10 12:05:55;;;;;;;52.73;27.27;;;;;;;13.59;66.67;95084.05;1437752;99;21060;-84
2022/11/10 12:09:11;;;;;;;49.38;28.05;;;;;;;13.69;67.25;95077.30;1473131;96;21157;-85
2022/11/10 12:12:49;;;;;;;53.68;28.62;;;;;;;13.84;67.18;95077.61;1467302;97;21076;-90
2022/11/10 12:15:55;;;;;;;47.35;30.05;;;;;;;14.11;66.91;95081.00;1521936;93;21100;-86
2022/11/10 12:28:42;;;;;;;57.23;30.08;;;;;;;14.52;65.78;95090.25;1554845;91;21481;-90
2022/11/10 12:31:33;;;;;;;62.20;30.23;;;;;;;14.43;66.01;95101.95;1518397;94;21058;-91
2022/11/10 12:34:42;;;;;;;73.80;28.92;;;;;;;14.39;66.26;95107.48;1451441;99;21404;-92
2022/11/10 12:37:50;;;;;;;55.23;22.25;;;;;;;14.34;66.44;95111.62;1451885;98;21182;-89
2022/11/10 12:41:09;;;;;;;66.67;22.13;;;;;;;14.50;66.55;95112.09;1487843;96;21107;-89
2022/11/10 12:45:00;;;;;;;;;;;;;;;;;;;;;
2022/11/10 12:47:44;;;;;;;39.25;20.08;;;;;;;15.38;64.24;95110.16;1395377;101;21145;-90
2022/11/10 12:56:38;;;;;;;43.55;23.90;;;;;;;14.99;63.73;95124.30;1306925;107;21102;-88
2022/11/10 12:59:31;;;;;;;51.55;22.48;;;;;;;14.82;63.99;95122.48;1319440;107;21128;-91
2022/11/10 13:02:36;;;;;;;56.33;22.93;;;;;;;14.61;64.47;95126.22;1338308;104;21306;-89
2022/11/10 13:06:03;;;;;;;48.60;24.57;;;;;;;14.46;65.02;95121.15;1394542;101;22013;-88
2022/11/10 13:08:52;;;;;;;65.30;24.90;;;;;;;14.30;65.62;95129.02;1443648;99;21664;-88
2022/11/10 13:15:59;;;;;;;60.65;32.88;;;;;;;14.02;66.58;95123.90;1421346;99;21088;-89
2022/11/10 13:19:06;;;;;;;98.37;54.90;;;;;;;13.97;67.01;95125.90;1450860;97;21501;-86
2022/11/10 13:22:40;;;;;;;113.22;61.80;;;;;;;13.97;67.21;95123.13;1325155;107;21148;-88
2022/11/10 13:25:58;;;;;;;94.72;48.70;;;;;;;13.97;67.36;95132.19;1236656;112;21247;-88
2022/11/10 13:29:00;;;;;;;67.53;40.23;;;;;;;13.98;67.51;95139.25;1270606;110;21176;-88
2022/11/10 13:32:18;;;;;;;58.30;29.45;;;;;;;13.99;67.51;95140.79;1272811;110;21138;-88
2022/11/10 13:35:40;;;;;;;78.35;41.85;;;;;;;13.96;67.54;95134.05;1242289;114;21175;-89
2022/11/10 13:41:41;;;;;;;68.75;29.23;;;;;;;13.88;68.09;95149.38;1241387;113;21724;-88
2022/11/10 13:44:41;;;;;;;;;;;;;;;13.86;68.31;95150.45;1250139;113;21133;-84
2022/11/10 13:47:41;;;;;;;87.40;33.23;;;;;;;13.83;68.75;95143.08;1228472;114;20219;-85
2022/11/10 13:50:55;;;;;;;62.80;33.42;;;;;;;13.77;68.80;95137.38;1241151;114;21127;-85
2022/11/10 13:54:19;;;;;;;75.55;33.02;;;;;;;13.72;68.85;95143.52;1225836;116;21275;-87
2022/11/10 13:57:16;;;;;;;130.23;68.70;;;;;;;13.63;69.04;95145.49;1251566;113;21154;-85
2022/11/10 14:00:19;;;;;;;87.00;47.33;;;;;;;13.54;69.55;95148.22;1339973;106;21105;-90
2022/11/10 14:03:05;;;;;;;78.07;44.33;;;;;;;13.47;70.22;95150.65;1364727;102;21548;-88
2022/11/10 14:06:07;;;;;;;111.35;56.08;;;;;;;13.47;70.76;95150.65;1394817;100;21152;-87
2022/11/10 14:09:38;;;;;;;86.08;46.20;;;;;;;13.45;70.96;95146.19;1401366;100;21288;-87
2022/11/10 14:12:33;;;;;;;80.30;43.42;;;;;;;13.43;71.44;95147.27;1415690;99;21258;-88
2022/11/10 14:15:21;;;;;;;83.25;46.48;;;;;;;13.42;71.31;95150.50;1414829;100;21197;-86
2022/11/10 14:18:37;;;;;;;121.45;68.72;;;;;;;13.37;71.44;95153.83;1445037;95;21141;-92
2022/11/10 14:21:30;;;;;;;120.28;59.15;;;;;;;13.35;71.53;95145.23;1412619;100;21088;-85
2022/11/10 14:24:30;;;;;;;135.82;60.60;;;;;;;13.23;71.70;95154.41;1420885;100;22366;-88
2022/11/10 14:27:23;;;;;;;117.50;57.20;;;;;;;13.14;72.10;95158.50;1414849;100;21200;-88
2022/11/10 14:30:27;;;;;;;130.70;48.80;;;;;;;13.09;72.25;95152.95;1432837;97;21059;-89
2022/11/10 14:33:13;;;;;;;144.22;54.08;;;;;;;13.07;72.42;95158.78;1464573;96;21512;-88
2022/11/10 14:36:07;;;;;;;131.65;52.25;;;;;;;12.98;72.66;95158.12;1466494;96;21047;-85
2022/11/10 14:38:53;;;;;;;123.42;55.35;;;;;;;12.92;72.92;95161.89;1463950;96;21173;-85
2022/11/10 14:41:46;;;;;;;247.98;128.30;;;;;;;12.86;73.19;95158.19;1472939;96;21052;-84
2022/11/10 14:44:32;;;;;;;187.55;100.15;;;;;;;12.79;73.63;95159.81;1475802;95;21121;-86
2022/11/10 14:47:29;;;;;;;113.40;65.40;;;;;;;12.70;74.23;95158.39;1468740;96;21598;-88
2022/11/10 14:50:27;;;;;;;104.47;58.55;;;;;;;12.66;74.67;95167.38;1480842;96;21089;-89
2022/11/10 14:53:34;;;;;;;80.95;43.48;;;;;;;12.61;74.97;95169.35;1470865;95;21548;-89
2022/11/10 14:56:29;;;;;;;95.53;49.40;;;;;;;12.59;75.46;95171.80;1467104;96;21180;-82
2022/11/10 14:59:17;;;;;;;107.40;55.08;;;;;;;12.57;75.75;95168.72;1436378;98;21307;-88
2022/11/10 15:02:03;;;;;;;124.72;64.67;;;;;;;12.55;76.15;95177.43;1406363;101;21069;-86
2022/11/10 15:04:52;;;;;;;125.00;66.07;;;;;;;12.54;76.41;95191.08;1406743;100;21076;-85
2022/11/10 15:07:38;;;;;;;126.97;62.20;;;;;;;12.52;76.59;95197.50;1400637;99;21207;-86
2022/11/10 15:10:38;;;;;;;106.12;58.20;;;;;;;12.49;76.80;95195.01;1405152;100;21195;-87
2022/11/10 15:13:33;;;;;;;112.00;60.92;;;;;;;12.48;76.91;95191.34;1402598;101;21758;-86
2022/11/10 15:16:28;;;;;;;110.72;57.35;;;;;;;12.48;77.14;95206.52;1403019;99;21097;-86
2022/11/10 15:19:29;;;;;;;125.90;67.92;;;;;;;12.44;77.23;95199.73;1432715;97;21190;-82
2022/11/10 15:22:32;;;;;;;137.28;70.95;;;;;;;12.42;77.63;95204.93;1444791;97;21198;-83
2022/11/10 15:25:21;;;;;;;127.32;72.60;;;;;;;12.40;77.77;95194.95;1447864;94;21104;-85
2022/11/10 15:28:27;;;;;;;250.22;140.22;;;;;;;12.37;77.78;95203.34;1439283;97;21211;-88
2022/11/10 15:31:25;;;;;;;171.40;90.77;;;;;;;12.31;77.94;95207.91;1461900;97;21086;-86
2022/11/10 15:34:31;;;;;;;190.10;87.92;;;;;;;12.28;77.98;95206.80;1441783;98;21145;-88
2022/11/10 15:37:29;;;;;;;181.12;94.22;;;;;;;12.26;77.97;95208.48;1480546;94;21267;-86
2022/11/10 15:43:30;;;;;;;167.15;95.67;;;;;;;12.16;78.33;95215.90;1455465;95;21315;-86
2022/11/10 15:46:21;;;;;;;146.13;81.53;;;;;;;12.11;78.45;95216.44;1463850;96;21142;-87
2022/11/10 15:49:29;;;;;;;160.50;83.45;;;;;;;12.07;78.67;95215.05;1420766;98;21723;-86
2022/11/10 15:52:18;;;;;;;165.80;78.33;;;;;;;12.01;78.71;95224.48;1429073;97;21210;-86
2022/11/10 15:55:04;;;;;;;153.95;77.35;;;;;;;11.95;79.01;95227.64;1397615;101;21121;-87
2022/11/10 15:57:51;;;;;;;169.65;84.65;;;;;;;11.96;79.47;95227.80;1418987;99;21101;-85
2022/11/10 16:00:37;;;;;;;193.87;92.53;;;;;;;11.97;79.56;95232.10;1428900;98;21072;-86
2022/11/10 16:03:23;;;;;;;163.92;86.78;;;;;;;11.96;79.63;95238.05;1419453;99;21208;-84
2022/11/10 16:06:12;;;;;;;151.12;83.00;;;;;;;11.94;79.74;95241.23;1421453;99;21953;-86
2022/11/10 16:09:00;;;;;;;159.43;79.87;;;;;;;11.91;79.63;95249.64;1419165;99;21199;-85
2022/11/10 16:11:54;;;;;;;145.30;79.25;;;;;;;11.87;79.63;95255.89;1391380;101;21636;-87
2022/11/10 16:14:49;;;;;;;108.87;59.90;;;;;;;11.80;79.91;95258.27;1415602;99;21045;-84
2022/11/10 16:17:44;;;;;;;148.50;81.22;;;;;;;11.78;80.21;95263.45;1416947;100;21183;-85
2022/11/10 16:20:42;;;;;;;;;;;;;;;;;;;;;
2022/11/10 16:23:18;;;;;;;167.28;75.78;;;;;;;11.75;80.45;95259.41;1428110;99;21045;-84
2022/11/10 16:26:06;;;;;;;152.62;67.42;;;;;;;11.70;80.73;95269.00;1373483;102;21083;-87
2022/11/10 16:28:55;;;;;;;112.50;49.85;;;;;;;11.66;80.79;95264.21;1378723;101;21157;-86
2022/11/10 16:31:40;;;;;;;135.10;63.02;;;;;;;11.61;81.00;95261.23;1421200;100;21260;-85
2022/11/10 16:34:25;;;;;;;480.20;239.10;;;;;;;11.55;81.36;95271.23;1420837;99;21323;-85
2022/11/10 16:37:11;;;;;;;440.62;223.10;;;;;;;11.49;81.72;95273.77;1421894;100;21224;-86
2022/11/10 16:39:57;;;;;;;429.65;216.25;;;;;;;11.45;82.14;95276.45;1424324;100;21138;-84
2022/11/10 16:42:43;;;;;;;380.70;191.50;;;;;;;11.41;82.56;95268.31;1424223;100;21119;-83
2022/11/10 16:45:29;;;;;;;288.65;137.15;;;;;;;11.42;82.71;95278.72;1432756;98;21756;-83
2022/11/10 16:48:20;;;;;;;222.98;110.97;;;;;;;11.43;82.82;95281.05;1463947;96;21261;-86
2022/11/10 16:51:10;;;;;;;209.47;106.85;;;;;;;11.44;82.77;95285.93;1438931;97;21687;-85
2022/11/10 16:53:55;;;;;;;214.02;111.40;;;;;;;11.44;82.78;95283.17;1507640;92;21544;-85
2022/11/10 16:56:41;;;;;;;261.40;130.43;;;;;;;11.41;82.97;95288.19;1575588;88;21112;-85
2022/11/10 16:59:26;;;;;;;277.13;137.57;;;;;;;11.43;83.15;95291.28;1585998;88;21085;-86
2022/11/10 17:02:28;;;;;;;278.65;134.05;;;;;;;11.43;83.07;95292.66;1553380;91;21807;-86
2022/11/10 17:05:14;;;;;;;314.08;159.50;;;;;;;11.42;82.91;95293.27;1572534;89;21084;-85
2022/11/10 17:07:59;;;;;;;310.60;166.37;;;;;;;11.38;83.13;95299.47;1566878;90;21281;-81
2022/11/10 17:10:47;;;;;;;223.05;117.85;;;;;;;11.39;83.27;95291.99;1566140;90;21020;-87
2022/11/10 17:13:33;;;;;;;150.47;80.32;;;;;;;11.35;83.17;95294.84;1550584;90;21049;-87
2022/11/10 17:16:29;;;;;;;156.63;87.95;;;;;;;11.25;83.42;95305.58;1548242;90;21375;-89
2022/11/10 17:19:22;;;;;;;161.35;79.82;;;;;;;11.14;83.85;95309.23;1517746;93;21122;-88
2022/11/10 17:22:10;;;;;;;126.70;75.55;;;;;;;11.08;84.45;95304.70;1491354;94;21189;-87
2022/11/10 17:24:55;;;;;;;132.75;77.85;;;;;;;11.07;85.06;95310.83;1506002;94;21564;-86
2022/11/10 17:27:40;;;;;;;223.85;123.42;;;;;;;11.15;85.60;95312.78;1491833;94;21049;-88
2022/11/10 17:30:26;;;;;;;258.27;117.10;;;;;;;11.18;85.46;95309.91;1479857;95;21220;-89
2022/11/10 17:33:13;;;;;;;236.87;124.60;;;;;;;11.19;85.27;95307.94;1496746;94;21137;-89
2022/11/10 17:36:00;;;;;;;224.65;114.05;;;;;;;11.12;85.21;95309.50;1485597;95;21082;-89
2022/11/10 17:38:46;;;;;;;232.43;112.28;;;;;;;11.07;85.51;95310.04;1488825;95;21140;-90
2022/11/10 17:41:31;;;;;;;206.57;112.32;;;;;;;11.08;85.86;95315.13;1501540;93;21058;-88
2022/11/10 17:44:16;;;;;;;295.55;148.95;;;;;;;11.11;86.06;95318.38;1481931;92;22082;-89
2022/11/10 17:47:02;;;;;;;373.13;202.28;;;;;;;11.16;86.24;95321.96;1536440;92;21592;-88
2022/11/10 17:49:47;;;;;;;358.35;191.68;;;;;;;11.22;86.13;95313.34;1533817;92;21615;-88
2022/11/10 17:52:32;;;;;;;305.73;160.85;;;;;;;11.26;85.91;95327.78;1531473;92;21092;-87
2022/11/10 17:55:21;;;;;;;280.15;135.03;;;;;;;11.27;85.91;95329.33;1531767;92;21632;-88
2022/11/10 17:58:09;;;;;;;286.50;148.68;;;;;;;11.25;85.69;95329.59;1535445;92;21155;-89
2022/11/10 18:00:55;;;;;;;306.98;152.93;;;;;;;11.19;85.96;95335.47;1523603;92;21071;-89
2022/11/10 18:03:41;;;;;;;291.00;142.50;;;;;;;11.19;85.97;95334.09;1521776;92;21570;-88
2022/11/10 18:06:27;;;;;;;306.52;153.53;;;;;;;11.12;85.55;95328.18;1514512;93;21043;-87
2022/11/10 18:09:15;;;;;;;249.20;122.58;;;;;;;11.00;85.75;95321.27;1514790;93;21263;-87
2022/11/10 18:12:02;;;;;;;256.40;122.20;;;;;;;10.95;86.07;95341.08;1514982;93;21388;-86
2022/11/10 18:14:47;;;;;;;290.43;142.35;;;;;;;10.93;86.19;95338.74;1518371;92;21039;-88
2022/11/10 18:17:34;;;;;;;327.48;164.55;;;;;;;10.95;86.64;95341.08;1562996;89;20982;-88
2022/11/10 18:20:20;;;;;;;341.40;172.02;;;;;;;11.01;86.76;95342.84;1608289;86;20986;-88
2022/11/10 18:23:10;;;;;;;311.43;164.15;;;;;;;11.03;86.45;95342.41;1607892;86;20993;-87
2022/11/10 18:25:54;;;;;;;328.48;162.35;;;;;;;11.03;86.62;95343.20;1605656;88;21561;-89
2022/11/10 18:28:42;;;;;;;321.37;166.90;;;;;;;11.05;86.54;95355.92;1606474;88;21029;-88
2022/11/10 18:31:27;;;;;;;334.48;167.32;;;;;;;11.06;86.49;95358.05;1611284;88;21010;-86
2022/11/10 18:34:13;;;;;;;267.57;140.00;;;;;;;11.05;86.46;95364.19;1615878;85;21006;-87
2022/11/10 18:37:00;;;;;;;203.92;113.30;;;;;;;11.08;86.96;95371.57;1609586;88;21108;-86
2022/11/10 18:39:46;;;;;;;220.73;111.75;;;;;;;11.09;86.85;95373.11;1615482;88;21157;-86
2022/11/10 18:42:33;;;;;;;329.50;176.87;;;;;;;11.05;87.07;95376.58;1602723;89;21066;-86
2022/11/10 18:45:18;;;;;;;209.18;114.47;;;;;;;11.08;87.40;95376.29;1615929;88;21121;-88
2022/11/10 18:48:04;;;;;;;193.55;106.27;;;;;;;11.14;87.38;95393.23;1618395;88;21068;-87
2022/11/10 18:50:50;;;;;;;192.00;107.22;;;;;;;11.17;87.05;95397.11;1604640;88;21090;-88
2022/11/10 18:56:25;;;;;;;186.22;100.07;;;;;;;11.07;87.14;95400.91;1608642;88;21003;-87
2022/11/10 18:59:13;;;;;;;140.45;81.12;;;;;;;11.04;87.19;95408.07;1604079;89;21254;-86
2022/11/10 19:02:00;;;;;;;122.80;71.33;;;;;;;11.02;87.31;95398.07;1586697;87;21049;-86
2022/11/10 19:04:46;;;;;;;145.77;82.67;;;;;;;11.05;87.68;95414.34;1589814;87;21057;-87
2022/11/10 19:07:32;;;;;;;147.02;81.40;;;;;;;11.09;87.80;95411.66;1589649;87;21107;-87
2022/11/10 19:10:18;;;;;;;124.18;70.97;;;;;;;11.12;87.50;95412.17;1597324;88;21204;-87
2022/11/10 19:13:06;;;;;;;68.15;38.67;;;;;;;11.12;87.17;95416.30;1592139;87;21035;-89
2022/11/10 19:15:54;;;;;;;29.60;20.27;;;;;;;11.13;87.26;95416.47;1592366;88;21033;-87
2022/11/10 19:18:43;;;;;;;23.95;16.73;;;;;;;11.17;87.00;95415.77;1591042;88;21630;-88
2022/11/10 19:21:28;;;;;;;18.73;14.00;;;;;;;11.18;86.84;95426.95;1595162;88;21112;-88
2022/11/10 19:24:14;;;;;;;19.87;13.20;;;;;;;11.14;86.58;95438.67;1598694;88;21011;-87
2022/11/10 19:27:00;;;;;;;15.95;12.00;;;;;;;11.13;86.58;95446.76;1593892;88;21070;-89
2022/11/10 19:29:45;;;;;;;17.32;12.82;;;;;;;11.08;86.55;95447.88;1587491;89;21033;-88
2022/11/10 19:32:31;;;;;;;14.23;10.20;;;;;;;11.04;86.54;95456.26;1594131;87;21003;-87
2022/11/10 19:35:16;;;;;;;20.32;13.75;;;;;;;11.02;86.54;95457.89;1604396;88;21391;-87
2022/11/10 19:38:01;;;;;;;19.32;12.00;;;;;;;11.00;86.60;95451.42;1578896;88;21189;-88
2022/11/10 19:40:47;;;;;;;13.83;9.20;;;;;;;11.05;86.47;95452.30;1577226;88;21548;-88
2022/11/10 19:43:32;;;;;;;11.68;8.53;;;;;;;11.04;86.01;95452.13;1584857;90;21037;-88
2022/11/10 19:46:20;;;;;;;10.40;7.90;;;;;;;11.00;85.95;95459.68;1584933;87;21023;-86
2022/11/10 19:49:07;;;;;;;11.97;8.20;;;;;;;10.98;85.59;95466.84;1551987;90;21245;-88
2022/11/10 19:51:52;;;;;;;23.27;14.45;;;;;;;10.98;85.55;95470.97;1596699;89;21185;-88
2022/11/10 19:54:37;;;;;;;14.23;9.90;;;;;;;10.99;85.56;95471.91;1583832;89;21007;-88
2022/11/10 19:57:22;;;;;;;6.28;5.67;;;;;;;11.05;85.18;95483.17;1525742;94;21547;-88
2022/11/10 20:00:11;;;;;;;18.98;13.48;;;;;;;11.07;83.98;95480.17;1578542;89;21025;-88
2022/11/10 20:02:59;;;;;;;5.20;4.67;;;;;;;11.08;82.71;95491.94;1585372;89;21301;-89
2022/11/10 20:05:46;;;;;;;3.72;3.30;;;;;;;11.09;81.40;95490.15;1585046;89;21128;-90
2022/11/10 20:08:32;;;;;;;9.83;8.10;;;;;;;11.05;80.91;95497.73;1555837;90;21044;-88
2022/11/10 20:11:24;;;;;;;19.32;12.47;;;;;;;11.02;81.13;95495.81;1558207;90;21156;-88
2022/11/10 20:14:10;;;;;;;33.77;20.80;;;;;;;11.04;81.28;95505.03;1542312;90;21124;-88
2022/11/10 20:16:56;;;;;;;19.77;13.98;;;;;;;11.08;82.00;95509.25;1564170;89;21261;-89
2022/11/10 20:19:42;;;;;;;18.27;12.95;;;;;;;11.07;83.10;95510.45;1555076;90;21100;-86